Time;durP1;ratioP1;P1;durP2;ratioP2;P2;SDS_P1;SDS_P2;PMS_P1;PMS_P2;Temp;Humidity;BMP_temperature;BMP_pressure;BME280_temperature;BME280_humidity;BME280_pressure;Samples;Min_cycle;Max_cycle;Signal;HPM_P1;HPM_P2
2022/04/01 00:02:11;;;;;;;;;;;;;;;14.95;68.09;97410.59;4397631;32;32219;-92
2022/04/01 00:04:53;;;;;;;;;;;;;;;15.00;67.88;97410.72;4360330;32;33511;-92
2022/04/01 00:07:35;;;;;;;;;;;;;;;15.06;67.75;97411.69;4366905;32;34473;-92
2022/04/01 00:10:17;;;;;;;;;;;;;;;15.09;67.52;97414.72;4348040;32;33852;-92
2022/04/01 00:13:00;;;;;;;;;;;;;;;15.22;67.18;97409.13;4356111;32;33904;-91
2022/04/01 00:15:42;;;;;;;;;;;;;;;15.25;66.74;97407.88;4382532;32;33910;-93
2022/04/01 00:18:25;;;;;;;;;;;;;;;15.10;67.12;97411.00;4373011;32;35183;-91
2022/04/01 00:21:07;;;;;;;;;;;;;;;14.88;68.02;97417.09;4387996;32;34256;-94
2022/04/01 00:23:49;;;;;;;;;;;;;;;15.04;67.60;97405.75;4369473;32;32317;-93
2022/04/01 00:26:31;;;;;;;;;;;;;;;15.08;67.40;97405.06;4380166;32;33184;-92
2022/04/01 00:29:17;;;;;;;;;;;;;;;14.93;67.87;97411.88;4387604;32;34390;-92
2022/04/01 00:32:00;;;;;;;;;;;;;;;15.03;67.68;97407.59;4385265;32;34791;-91
2022/04/01 00:34:46;;;;;;;;;;;;;;;14.99;67.93;97405.59;4362604;32;32535;-91
2022/04/01 00:37:33;;;;;;;;;;;;;;;14.94;68.08;97400.94;4388601;32;34121;-93
2022/04/01 00:40:16;;;;;;;;;;;;;;;14.97;67.87;97400.50;4339153;33;34021;-94
2022/04/01 00:43:10;;;;;;;;;;;;;;;14.84;68.34;97403.34;4410843;32;19977;-91
2022/04/01 00:45:52;;;;;;;;;;;;;;;14.59;68.91;97399.19;4354619;32;32507;-91
2022/04/01 00:48:34;;;;;;;;;;;;;;;14.05;71.51;97388.56;4373561;32;33289;-90
2022/04/01 00:51:19;;;;;;;;;;;;;;;14.22;71.35;97380.75;4363447;32;35432;-93
2022/04/01 00:54:08;;;;;;;;;;;;;;;14.59;69.93;97388.50;4365727;32;35140;-92
2022/04/01 00:57:03;;;;;;;;;;;;;;;14.58;69.76;97398.38;4361052;32;19982;-92
2022/04/01 00:59:46;;;;;;;;;;;;;;;14.83;68.75;97396.38;4389837;32;33123;-93
2022/04/01 01:02:28;;;;;;;;;;;;;;;14.63;69.47;97395.00;4358690;32;34349;-92
2022/04/01 01:05:10;;;;;;;;;;;;;;;14.77;69.08;97389.25;4380710;32;35391;-91
2022/04/01 01:07:53;;;;;;;;;;;;;;;14.75;69.07;97390.53;4355686;32;33296;-93
2022/04/01 01:10:37;;;;;;;;;;;;;;;14.84;68.79;97400.66;4343157;32;34059;-91
2022/04/01 01:13:19;;;;;;;;;;;;;;;14.85;68.90;97398.81;4372090;32;34061;-90
2022/04/01 01:16:01;;;;;;;;;;;;;;;15.12;67.67;97398.19;4355436;32;33742;-91
2022/04/01 01:18:43;;;;;;;;;;;;;;;14.86;68.39;97405.81;4376205;32;32546;-91
2022/04/01 01:21:26;;;;;;;;;;;;;;;14.59;69.97;97396.53;4350958;32;33745;-91
2022/04/01 01:24:14;;;;;;;;;;;;;;;14.80;69.25;97396.00;4364493;32;33925;-92
2022/04/01 01:26:57;;;;;;;;;;;;;;;14.86;68.98;97397.78;4376709;32;33623;-93
2022/04/01 01:29:40;;;;;;;;;;;;;;;14.96;68.47;97393.50;4360356;32;31889;-91
2022/04/01 01:32:22;;;;;;;;;;;;;;;15.01;68.36;97395.50;4383454;32;33131;-93
2022/04/01 01:35:05;;;;;;;;;;;;;;;14.95;68.44;97397.22;4371481;32;33984;-92
2022/04/01 01:37:52;;;;;;;;;;;;;;;14.81;68.96;97394.97;4359892;32;33526;-91
2022/04/01 01:40:34;;;;;;;;;;;;;;;14.66;69.52;97397.25;4371478;32;33320;-92
2022/04/01 01:43:16;;;;;;;;;;;;;;;14.66;69.67;97397.25;4392445;32;34961;-91
2022/04/01 01:46:00;;;;;;;;;;;;;;;14.51;70.28;97384.28;4388912;32;34074;-92
2022/04/01 01:48:44;;;;;;;;;;;;;;;14.41;70.70;97391.22;4369215;32;34955;-94
2022/04/01 01:57:31;;;;;;;;;;;;;;;14.46;70.56;97394.84;4348048;32;34720;-92
2022/04/01 02:00:16;;;;;;;;;;;;;;;14.60;70.32;97400.84;4421380;32;33753;-93
2022/04/01 02:02:58;;;;;;;;;;;;;;;14.70;70.07;97390.38;4349745;32;33441;-91
2022/04/01 02:05:51;;;;;;;;;;;;;;;14.71;69.84;97387.50;4401647;32;33907;-92
2022/04/01 02:08:38;;;;;;;;;;;;;;;14.80;69.54;97387.97;4351308;32;34172;-92
2022/04/01 02:11:21;;;;;;;;;;;;;;;14.84;69.41;97391.84;4399676;32;33883;-91
2022/04/01 02:14:04;;;;;;;;;;;;;;;14.90;69.28;97394.41;4355895;32;32159;-90
2022/04/01 02:16:48;;;;;;;;;;;;;;;14.76;69.59;97394.84;4369478;32;33077;-92
2022/04/01 02:19:31;;;;;;;;;;;;;;;14.79;69.35;97384.50;4377138;32;35587;-91
2022/04/01 02:22:13;;;;;;;;;;;;;;;14.94;68.83;97382.19;4350952;32;34492;-90
2022/04/01 02:24:55;;;;;;;;;;;;;;;14.94;68.64;97382.19;4375884;32;33666;-93
2022/04/01 02:27:37;;;;;;;;;;;;;;;14.84;68.75;97387.28;4386529;32;33947;-91
2022/04/01 02:30:19;;;;;;;;;;;;;;;14.84;68.73;97383.81;4379378;32;35523;-91
2022/04/01 02:33:03;;;;;;;;;;;;;;;14.86;68.63;97369.13;4408421;32;33762;-90
2022/04/01 02:35:45;;;;;;;;;;;;;;;14.74;68.86;97362.94;4376466;32;32963;-90
2022/04/01 02:38:29;;;;;;;;;;;;;;;14.78;68.87;97357.94;4359993;32;33235;-90
2022/04/01 02:41:12;;;;;;;;;;;;;;;14.89;68.51;97347.28;4409875;32;35286;-90
2022/04/01 02:44:21;;;;;;;;;;;;;;;14.14;71.15;97348.97;4401056;32;35161;-89
2022/04/01 02:47:27;;;;;;;;;;;;;;;14.72;69.16;97354.34;4370388;32;34680;-92
2022/04/01 02:50:20;;;;;;;;;;;;;;;14.79;68.83;97360.41;4410218;32;33958;-91
2022/04/01 02:53:02;;;;;;;;;;;;;;;14.89;68.37;97363.34;4350084;32;34209;-92
2022/04/01 02:55:45;;;;;;;;;;;;;;;14.96;68.00;97349.84;4374111;32;33699;-92
2022/04/01 02:58:27;;;;;;;;;;;;;;;15.07;67.40;97354.41;4333488;32;32248;-92
2022/04/01 03:01:09;;;;;;;;;;;;;;;14.90;68.08;97351.59;4384319;32;32741;-95
2022/04/01 03:03:52;;;;;;;;;;;;;;;14.74;68.84;97346.88;4371507;32;35747;-93
2022/04/01 03:06:36;;;;;;;;;;;;;;;14.53;69.81;97347.41;4382949;32;33672;-93
2022/04/01 03:09:19;;;;;;;;;;;;;;;14.31;70.89;97345.47;4412651;32;31823;-93
2022/04/01 03:12:07;;;;;;;;;;;;;;;14.54;70.08;97340.19;4369875;32;33567;-92
2022/04/01 03:14:49;;;;;;;;;;;;;;;14.60;69.85;97347.31;4402306;32;35217;-91
2022/04/01 03:17:32;;;;;;;;;;;;;;;14.68;69.50;97350.50;4375867;32;33838;-92
2022/04/01 03:20:15;;;;;;;;;;;;;;;14.65;69.60;97361.63;4369881;32;31803;-92
2022/04/01 03:22:57;;;;;;;;;;;;;;;14.71;69.38;97370.59;4396192;32;34175;-91
2022/04/01 03:25:42;;;;;;;;;;;;;;;14.43;70.41;97373.06;4409415;32;34949;-92
2022/04/01 03:28:24;;;;;;;;;;;;;;;14.68;69.43;97353.16;4378618;32;33843;-90
2022/04/01 03:31:14;;;;;;;;;;;;;;;14.37;70.78;97336.56;4387378;32;32257;-89
2022/04/01 03:34:22;;;;;;;;;;;;;;;14.36;70.76;97336.78;4386044;32;33402;-88
2022/04/01 03:37:31;;;;;;;;;;;;;;;14.55;70.18;97348.00;4376766;32;34538;-90
2022/04/01 03:40:19;;;;;;;;;;;;;;;14.69;69.51;97349.44;4384965;32;33348;-90
2022/04/01 03:43:13;;;;;;;;;;;;;;;14.58;69.84;97354.75;4381697;32;32504;-91
2022/04/01 03:45:55;;;;;;;;;;;;;;;14.70;69.42;97359.09;4392999;32;33161;-90
2022/04/01 03:48:38;;;;;;;;;;;;;;;14.58;69.79;97360.91;4380974;32;34829;-91
2022/04/01 03:51:22;;;;;;;;;;;;;;;14.75;69.15;97356.53;4384672;32;34814;-91
2022/04/01 03:54:05;;;;;;;;;;;;;;;14.51;69.96;97357.53;4353379;32;32224;-91
2022/04/01 03:56:53;;;;;;;;;;;;;;;14.41;70.62;97363.66;4367876;32;33435;-91
2022/04/01 03:59:42;;;;;;;;;;;;;;;14.58;69.99;97360.09;4383504;32;34727;-91
2022/04/01 04:02:24;;;;;;;;;;;;;;;14.53;70.35;97363.47;4375793;32;33701;-90
2022/04/01 04:05:37;;;;;;;;;;;;;;;14.53;70.22;97351.94;4362610;32;34193;-92
2022/04/01 04:08:22;;;;;;;;;;;;;;;14.58;70.12;97358.22;4404750;32;34026;-91
2022/04/01 04:11:09;;;;;;;;;;;;;;;14.67;69.89;97362.22;4391480;32;35443;-94
2022/04/01 04:13:56;;;;;;;;;;;;;;;14.63;70.03;97357.56;4367761;32;33664;-91
2022/04/01 04:16:45;;;;;;;;;;;;;;;14.18;71.58;97336.81;4368836;32;33932;-91
2022/04/01 04:20:01;;;;;;;;;;;;;;;14.41;70.88;97324.34;4370594;32;33395;-88
2022/04/01 04:23:13;;;;;;;;;;;;;;;14.53;70.62;97320.66;4370998;32;35078;-93
2022/04/01 04:26:01;;;;;;;;;;;;;;;14.62;70.23;97323.81;4346474;32;33328;-94
2022/04/01 04:28:48;;;;;;;;;;;;;;;14.68;69.40;97320.22;4392445;32;32113;-93
2022/04/01 04:31:37;;;;;;;;;;;;;;;14.61;69.90;97322.19;4403880;32;34078;-91
2022/04/01 04:34:20;;;;;;;;;;;;;;;14.52;70.28;97323.56;4374488;32;34781;-92
2022/04/01 04:37:03;;;;;;;;;;;;;;;14.35;70.85;97327.91;4374496;32;35073;-92
2022/04/01 04:39:45;;;;;;;;;;;;;;;14.63;70.06;97328.94;4356707;32;32303;-94
2022/04/01 04:42:30;;;;;;;;;;;;;;;14.69;69.69;97337.91;4378079;32;34126;-91
2022/04/01 04:45:18;;;;;;;;;;;;;;;14.71;69.60;97341.16;4364670;32;35155;-93
2022/04/01 04:48:34;;;;;;;;;;;;;;;14.81;69.34;97338.75;4350204;32;35597;-91
2022/04/01 04:51:16;;;;;;;;;;;;;;;14.92;68.99;97340.66;4382918;32;32731;-94
2022/04/01 04:54:16;;;;;;;;;;;;;;;14.89;68.95;97352.62;4373429;32;33286;-92
2022/04/01 04:57:06;;;;;;;;;;;;;;;14.89;68.88;97346.44;4326490;33;35923;-91
2022/04/01 04:59:53;;;;;;;;;;;;;;;14.95;68.69;97345.53;4371087;32;34362;-90
2022/04/01 05:02:30;;;;;;;;;;;;;;;14.56;70.00;97343.47;4357858;32;33288;-90
2022/04/01 05:05:27;;;;;;;;;;;;;;;14.75;69.15;97347.72;4367191;32;33525;-89
2022/04/01 05:08:23;;;;;;;;;;;;;;;14.54;69.65;97354.41;4350307;32;35040;-92
2022/04/01 05:11:16;;;;;;;;;;;;;;;14.64;68.85;97356.53;4353846;32;34126;-91
2022/04/01 05:14:39;;;;;;;;;;;;;;;14.20;70.43;97356.94;4330619;33;33161;-90
2022/04/01 05:17:36;;;;;;;;;;;;;;;13.95;70.79;97372.22;4355023;32;33874;-92
2022/04/01 05:20:28;;;;;;;;;;;;;;;14.14;70.23;97371.16;4366259;32;34910;-90
2022/04/01 05:23:20;;;;;;;;;;;;;;;14.12;70.27;97372.41;4360263;32;33980;-89
2022/04/01 05:26:38;;;;;;;;;;;;;;;14.11;69.79;97371.63;4368149;32;33093;-91
2022/04/01 05:29:34;;;;;;;;;;;;;;;14.14;69.95;97373.03;4374648;32;34852;-88
2022/04/01 05:32:25;;;;;;;;;;;;;;;14.12;69.74;97372.41;4366795;32;34508;-89
2022/04/01 05:35:12;;;;;;;;;;;;;;;13.91;70.02;97365.72;4351924;32;33696;-92
2022/04/01 05:37:54;;;;;;;;;;;;;;;14.00;69.93;97366.22;4367202;32;33077;-89
2022/04/01 05:40:44;;;;;;;;;;;;;;;14.16;69.27;97366.41;4387237;32;34283;-89
2022/04/01 05:43:32;;;;;;;;;;;;;;;14.04;69.63;97360.19;4369481;32;35204;-89
2022/04/01 05:46:23;;;;;;;;;;;;;;;13.92;70.17;97366.50;4368791;32;34078;-90
2022/04/01 05:49:09;;;;;;;;;;;;;;;13.87;70.30;97361.81;4353477;32;32638;-92
2022/04/01 05:51:51;;;;;;;;;;;;;;;13.94;70.00;97359.06;4346948;32;33544;-91
2022/04/01 05:54:34;;;;;;;;;;;;;;;13.83;70.28;97362.50;4371805;32;36276;-90
2022/04/01 05:57:17;;;;;;;;;;;;;;;13.45;71.55;97370.72;4363841;32;34586;-90
2022/04/01 06:00:33;;;;;;;;;;;;;;;13.58;70.81;97369.78;1709089;27;20360;-91
2022/04/01 06:03:28;;;;;;;;;;;;;;;13.28;71.26;97379.50;4353833;32;32018;-90
2022/04/01 06:06:37;;;;;;;;;;;;;;;13.17;71.04;97378.37;4342294;32;36925;-88
2022/04/01 06:09:36;;;;;;;;;;;;;;;12.87;71.14;97376.53;4332590;32;34324;-92
2022/04/01 06:12:23;;;;;;;;;;;;;;;13.23;69.84;97380.16;4320846;33;32858;-91
2022/04/01 06:15:06;;;;;;;;;;;;;;;13.14;69.98;97370.78;4353791;32;34042;-92
2022/04/01 06:18:44;;;;;;;;;;;;;;;13.20;69.74;97367.25;4343998;32;33965;-91
2022/04/01 06:21:33;;;;;;;;;;;;;;;13.39;69.13;97368.94;4366997;32;33529;-88
2022/04/01 06:24:05;;;;;;;;;;;;;;;13.40;69.04;97365.22;4383689;32;33116;-88
2022/04/01 06:26:55;;;;;;;;;;;;;;;13.52;68.20;97363.47;4371364;32;33072;-88
2022/04/01 06:30:05;;;;;;;;;;;;;;;13.34;68.72;97359.94;4379438;32;34599;-86
2022/04/01 06:33:09;;;;;;;;;;;;;;;13.43;68.60;97366.63;4382277;32;33820;-91
2022/04/01 06:35:56;;;;;;;;;;;;;;;13.40;68.41;97377.78;4371055;32;33429;-90
2022/04/01 06:38:50;;;;;;;;;;;;;;;13.37;68.19;97381.69;4379919;32;35106;-84
2022/04/01 06:41:57;;;;;;;;;;;;;;;13.46;67.85;97380.38;4378094;32;35203;-88
2022/04/01 06:44:32;;;;;;;;;;;;;;;13.40;68.04;97386.59;4379327;32;34489;-92
2022/04/01 06:47:20;;;;;;;;;;;;;;;13.14;69.38;97378.81;4380541;32;32202;-82
2022/04/01 06:49:55;;;;;;;;;;;;;;;13.52;68.23;97374.16;4368153;32;33918;-86
2022/04/01 06:52:34;;;;;;;;;;;;;;;13.47;68.78;97376.66;4364403;32;34288;-86
2022/04/01 06:55:36;;;;;;;;;;;;;;;13.48;68.68;97378.28;4380045;32;33594;-81
2022/04/01 06:58:11;;;;;;;;;;;;;;;13.24;69.85;97383.66;4373953;32;32734;-86
2022/04/01 07:00:47;;;;;;;;;;;;;;;13.32;69.88;97386.84;4379321;32;33490;-91
2022/04/01 07:03:37;;;;;;;;;;;;;;;13.41;69.42;97385.53;4376951;32;34959;-86
2022/04/01 07:06:07;;;;;;;;;;;;;;;13.33;70.01;97385.81;4381981;32;35812;-83
2022/04/01 07:08:36;;;;;;;;;;;;;;;13.50;69.70;97378.06;4381864;32;34932;-87
2022/04/01 07:11:12;;;;;;;;;;;;;;;13.25;70.75;97385.28;4368859;32;33840;-81
2022/04/01 07:14:05;;;;;;;;;;;;;;;13.11;70.70;97389.94;4387236;32;35816;-79
2022/04/01 07:16:52;;;;;;;;;;;;;;;12.97;71.23;97395.59;4379147;32;34776;-81
2022/04/01 07:19:37;;;;;;;;;;;;;;;12.33;69.89;97392.28;4376873;32;33662;-81
2022/04/01 07:22:21;;;;;;;;;;;;;;;12.17;70.03;97401.56;4374016;32;34072;-81
2022/04/01 07:25:06;;;;;;;;;;;;;;;12.02;69.73;97410.88;4388245;32;35271;-81
2022/04/01 07:27:50;;;;;;;;;;;;;;;11.93;70.41;97406.81;4380431;32;35110;-80
2022/04/01 07:30:38;;;;;;;;;;;;;;;12.03;69.74;97404.50;4377174;32;31952;-83
2022/04/01 07:33:14;;;;;;;;;;;;;;;11.75;70.58;97404.00;4371743;32;34254;-83
2022/04/01 07:36:02;;;;;;;;;;;;;;;11.70;71.00;97395.78;4389763;32;34999;-89
2022/04/01 07:38:49;;;;;;;;;;;;;;;11.67;70.71;97394.37;4362263;32;35337;-83
2022/04/01 07:41:37;;;;;;;;;;;;;;;11.22;72.44;97401.59;4367952;32;34033;-83
2022/04/01 07:44:25;;;;;;;;;;;;;;;11.48;71.33;97405.03;4380814;32;34690;-86
2022/04/01 07:46:56;;;;;;;;;;;;;;;11.66;70.50;97406.06;4381015;32;34356;-88
2022/04/01 07:49:27;;;;;;;;;;;;;;;11.73;70.61;97412.19;4365081;32;34096;-84
2022/04/01 07:52:40;;;;;;;;;;;;;;;11.23;71.86;97413.88;4368357;32;32238;-83
2022/04/01 07:55:29;;;;;;;;;;;;;;;11.58;70.75;97416.94;4373505;32;33173;-84
2022/04/01 07:58:00;;;;;;;;;;;;;;;11.12;71.71;97415.31;4392184;32;34655;-84
2022/04/01 08:01:07;;;;;;;;;;;;;;;11.24;71.49;97421.62;4351711;32;34503;-87
2022/04/01 08:04:05;;;;;;;;;;;;;;;11.26;71.54;97424.09;4378685;32;32682;-91
2022/04/01 08:06:47;;;;;;;;;;;;;;;11.36;70.87;97415.50;4372704;32;34892;-85
2022/04/01 08:09:19;;;;;;;;;;;;;;;11.14;71.18;97431.06;4385334;32;35197;-84
2022/04/01 08:11:56;;;;;;;;;;;;;;;10.91;72.55;97436.78;4369333;32;33591;-83
2022/04/01 08:14:44;;;;;;;;;;;;;;;11.06;71.99;97439.25;4368149;32;33318;-83
2022/04/01 08:17:31;;;;;;;;;;;;;;;10.97;72.58;97443.13;4380648;32;34429;-83
2022/04/01 08:20:15;;;;;;;;;;;;;;;11.10;73.26;97437.81;4378837;32;35518;-83
2022/04/01 08:22:42;;;;;;;;;;;;;;;11.38;72.05;97441.91;4381827;32;33418;-85
2022/04/01 08:25:32;;;;;;;;;;;;;;;11.20;73.16;97433.72;4374171;32;31850;-89
2022/04/01 08:28:20;;;;;;;;;;;;;;;11.15;73.37;97436.16;4376887;32;33579;-83
2022/04/01 08:30:51;;;;;;;;;;;;;;;11.47;71.12;97446.81;4377860;32;35185;-86
2022/04/01 08:33:25;;;;;;;;;;;;;;;10.98;73.04;97456.25;4385070;32;35798;-89
2022/04/01 08:35:58;;;;;;;;;;;;;;;10.84;73.58;97459.88;4377782;32;33997;-89
2022/04/01 08:38:28;;;;;;;;;;;;;;;10.71;73.67;97461.69;4387979;32;33245;-84
2022/04/01 08:41:20;;;;;;;;;;;;;;;10.46;74.71;97472.06;4385703;32;35160;-86
2022/04/01 08:44:23;;;;;;;;;;;;;;;10.53;73.56;97464.09;4381176;32;34313;-84
2022/04/01 08:46:59;;;;;;;;;;;;;;;10.70;72.72;97471.53;4375641;32;33032;-84
2022/04/01 08:50:07;;;;;;;;;;;;;;;10.91;71.93;97475.84;4376233;32;34705;-82
2022/04/01 08:52:55;;;;;;;;;;;;;;;10.78;72.32;97484.66;4379740;32;34587;-85
2022/04/01 08:55:47;;;;;;;;;;;;;;;10.48;73.09;97490.47;4380456;32;33805;-87
2022/04/01 08:58:35;;;;;;;;;;;;;;;10.55;72.82;97493.97;4379446;32;33625;-85
2022/04/01 09:01:22;;;;;;;;;;;;;;;10.66;72.31;97501.37;4375059;32;32706;-86
2022/04/01 09:04:30;;;;;;;;;;;;;;;10.67;72.09;97503.03;4367145;32;34767;-83
2022/04/01 09:07:17;;;;;;;;;;;;;;;10.92;71.86;97498.78;4367423;32;33941;-85
2022/04/01 09:10:26;;;;;;;;;;;;;;;10.89;71.47;97491.19;4376609;32;32059;-87
2022/04/01 09:13:06;;;;;;;;;;;;;;;10.87;72.15;97488.72;4386806;32;34719;-85
2022/04/01 09:15:40;;;;;;;;;;;;;;;10.77;71.55;97501.59;4397986;32;35238;-82
2022/04/01 09:18:12;;;;;;;;;;;;;;;11.13;70.56;97503.94;4396908;32;34695;-88
2022/04/01 09:21:03;;;;;;;;;;;;;;;10.83;71.37;97494.66;4399428;32;33838;-90
2022/04/01 09:23:50;;;;;;;;;;;;;;;10.98;71.23;97501.47;4387163;32;34749;-86
2022/04/01 09:26:37;;;;;;;;;;;;;;;10.96;71.44;97500.81;4399414;32;36201;-87
2022/04/01 09:29:41;;;;;;;;;;;;;;;10.92;71.23;97512.06;4401597;32;34587;-94
2022/04/01 09:32:49;;;;;;;;;;;;;;;11.04;70.75;97500.63;4403182;32;32220;-85
2022/04/01 09:35:38;;;;;;;;;;;;;;;10.98;70.49;97506.78;4402245;32;34217;-89
2022/04/01 09:38:17;;;;;;;;;;;;;;;11.05;69.45;97504.12;4400301;32;34449;-87
2022/04/01 09:41:04;;;;;;;;;;;;;;;11.02;69.68;97507.22;4387157;32;34370;-87
2022/04/01 09:44:15;;;;;;;;;;;;;;;10.86;70.17;97518.22;4401821;32;32781;-88
2022/04/01 09:47:11;;;;;;;;;;;;;;;11.29;68.67;97517.66;4400867;32;34196;-86
2022/04/01 09:49:42;;;;;;;;;;;;;;;11.33;68.25;97519.72;4387901;32;34701;-91
2022/04/01 09:52:36;;;;;;;;;;;;;;;10.81;69.72;97521.47;4399754;32;34972;-85
2022/04/01 09:55:13;;;;;;;;;;;;;;;10.72;69.90;97517.34;4395069;32;32810;-83
2022/04/01 09:57:48;;;;;;;;;;;;;;;10.80;70.57;97521.66;4398944;32;35177;-84
2022/04/01 10:00:39;;;;;;;;;;;;;;;10.49;70.48;97518.69;4393979;32;35470;-90
2022/04/01 10:03:35;;;;;;;;;;;;;;;10.73;69.89;97528.78;4387085;32;34359;-91
2022/04/01 10:06:18;;;;;;;;;;;;;;;10.75;69.99;97526.78;4393209;32;31998;-92
2022/04/01 10:09:10;;;;;;;;;;;;;;;10.95;69.77;97530.31;4391315;32;33072;-85
2022/04/01 10:11:58;;;;;;;;;;;;;;;10.14;71.64;97533.88;4385351;32;34762;-88
2022/04/01 10:14:45;;;;;;;;;;;;;;;10.41;70.53;97542.78;4398801;32;34030;-87
2022/04/01 10:17:33;;;;;;;;;;;;;;;10.48;71.12;97533.81;4386970;32;31859;-86
2022/04/01 10:20:18;;;;;;;;;;;;;;;10.83;70.13;97534.56;4399230;32;33640;-87
2022/04/01 10:22:46;;;;;;;;;;;;;;;10.74;69.77;97544.56;4385295;32;35108;-86
2022/04/01 10:25:31;;;;;;;;;;;;;;;10.57;69.40;97543.25;4399264;32;34693;-86
2022/04/01 10:28:39;;;;;;;;;;;;;;;10.47;70.66;97547.34;4399498;32;32907;-88
2022/04/01 10:31:27;;;;;;;;;;;;;;;10.27;70.58;97560.50;4398774;32;33483;-85
2022/04/01 10:34:18;;;;;;;;;;;;;;;10.51;70.01;97553.87;4400291;32;34906;-82
2022/04/01 10:37:06;;;;;;;;;;;;;;;10.40;70.32;97554.44;4399443;32;36375;-88
2022/04/01 10:40:00;;;;;;;;;;;;;;;10.31;70.28;97567.06;4398278;32;33355;-86
2022/04/01 10:42:57;;;;;;;;;;;;;;;9.95;70.76;97565.59;4398674;32;34388;-90
2022/04/01 10:46:00;;;;;;;;;;;;;;;10.03;71.34;97565.47;4398403;32;35377;-84
2022/04/01 10:52:11;;;;;;;;;;;;;;;9.75;72.31;97570.75;4384628;32;32352;-87
2022/04/01 10:55:03;;;;;;;;;;;;;;;10.05;72.07;97572.25;4398544;32;33835;-84
2022/04/01 10:57:47;;;;;;;;;;;;;;;10.22;72.11;97580.72;4397044;32;34551;-86
2022/04/01 11:00:24;;;;;;;;;;;;;;;10.28;71.78;97577.28;4398388;32;35559;-86
2022/04/01 11:03:21;;;;;;;;;;;;;;;10.38;71.72;97581.22;4396633;32;35358;-85
2022/04/01 11:06:36;;;;;;;;;;;;;;;10.27;71.23;97581.75;4382953;32;33990;-87
2022/04/01 11:09:06;;;;;;;;;;;;;;;10.67;70.08;97578.28;4381840;32;35708;-85
2022/04/01 11:11:56;;;;;;;;;;;;;;;10.54;69.15;97578.22;4399295;32;34650;-85
2022/04/01 11:14:28;;;;;;;;;;;;;;;10.15;71.22;97578.03;4397901;32;32986;-85
2022/04/01 11:17:16;;;;;;;;;;;;;;;10.43;70.73;97583.28;4399534;32;34085;-86
2022/04/01 11:20:18;;;;;;;;;;;;;;;10.07;71.85;97586.13;4385475;32;34433;-84
2022/04/01 11:23:10;;;;;;;;;;;;;;;9.84;72.46;97584.72;4352210;32;34153;-85
2022/04/01 11:25:47;;;;;;;;;;;;;;;10.41;70.88;97580.00;4339755;32;32672;-86
2022/04/01 11:28:38;;;;;;;;;;;;;;;10.32;71.73;97576.69;4343460;32;33215;-85
2022/04/01 11:31:14;;;;;;;;;;;;;;;10.51;70.25;97577.81;4348038;32;34814;-88
2022/04/01 11:34:20;;;;;;;;;;;;;;;10.40;71.53;97576.50;4348037;32;34737;-88
2022/04/01 11:36:48;;;;;;;;;;;;;;;10.48;71.00;97576.34;4338568;32;32370;-90
2022/04/01 11:39:34;;;;;;;;;;;;;;;10.35;71.11;97584.28;4341601;32;33018;-87
2022/04/01 11:42:06;;;;;;;;;;;;;;;10.30;72.18;97578.72;4346882;32;35402;-88
2022/04/01 11:45:02;;;;;;;;;;;;;;;10.34;71.16;97582.63;4342967;32;34119;-88
2022/04/01 11:47:41;;;;;;;;;;;;;;;10.02;72.43;97579.75;4342284;32;33097;-91
2022/04/01 11:50:18;;;;;;;;;;;;;;;10.22;71.82;97578.06;4350151;32;32460;-92
2022/04/01 11:53:05;;;;;;;;;;;;;;;10.28;71.46;97578.09;4335320;32;34647;-93
2022/04/01 11:55:40;;;;;;;;;;;;;;;10.68;71.23;97573.78;4342147;32;34917;-85
2022/04/01 11:58:33;;;;;;;;;;;;;;;10.65;71.00;97575.00;4338304;32;32288;-89
2022/04/01 12:01:18;;;;;;;;;;;;;;;10.49;69.96;97578.00;4400608;32;35031;-87
2022/04/01 12:04:11;;;;;;;;;;;;;;;10.45;71.01;97582.06;4400629;32;35426;-90
2022/04/01 12:10:22;;;;;;;;;;;;;;;10.43;70.45;97572.66;4402658;32;33355;-91
2022/04/01 12:13:09;;;;;;;;;;;;;;;10.49;70.86;97567.34;4383282;32;34561;-89
2022/04/01 12:16:13;;;;;;;;;;;;;;;10.73;69.26;97579.31;4400011;32;34593;-91
2022/04/01 12:19:00;;;;;;;;;;;;;;;10.61;69.59;97579.09;4395608;32;33505;-91
2022/04/01 12:21:29;;;;;;;;;;;;;;;10.65;69.46;97585.63;4399809;32;33461;-95
2022/04/01 12:24:14;;;;;;;;;;;;;;;10.83;69.65;97585.91;4369258;32;33820;-88
2022/04/01 12:27:18;;;;;;;;;;;;;;;11.05;69.07;97582.09;4369566;32;34272;-94
2022/04/01 12:30:06;;;;;;;;;;;;;;;11.02;68.97;97589.69;4357993;32;34206;-89
2022/04/01 12:32:56;;;;;;;;;;;;;;;10.95;68.04;97592.31;4371552;32;33390;-89
2022/04/01 12:35:27;;;;;;;;;;;;;;;10.60;69.65;97595.22;4371119;32;33675;-88
2022/04/01 12:38:35;;;;;;;;;;;;;;;10.77;69.47;97605.31;4357620;32;34771;-92
2022/04/01 12:41:19;;;;;;;;;;;;;;;10.87;67.46;97613.75;4369951;32;33561;-90
2022/04/01 12:43:49;;;;;;;;;;;;;;;10.75;68.84;97617.19;4368844;32;32544;-93
2022/04/01 12:46:36;;;;;;;;;;;;;;;10.69;68.14;97617.97;4390610;32;34353;-92
2022/04/01 12:49:15;;;;;;;;;;;;;;;10.44;68.28;97615.00;4385862;32;35328;-89
2022/04/01 12:52:04;;;;;;;;;;;;;;;10.57;68.96;97616.91;4417901;32;34284;-88
2022/04/01 12:55:01;;;;;;;;;;;;;;;10.54;67.78;97619.94;4429782;32;34299;-88
2022/04/01 12:57:52;;;;;;;;;;;;;;;10.41;68.37;97626.03;4417214;32;32605;-88
2022/04/01 13:00:30;;;;;;;;;;;;;;;10.05;69.17;97628.03;4406983;32;36165;-87
2022/04/01 13:03:13;;;;;;;;;;;;;;;9.87;70.03;97624.16;4403865;32;33727;-92
2022/04/01 13:06:09;;;;;;;;;;;;;;;9.94;71.18;97622.37;4429166;32;32163;-86
2022/04/01 13:09:14;;;;;;;;;;;;;;;9.89;70.40;97625.59;4434848;32;33771;-85
2022/04/01 13:12:06;;;;;;;;;;;;;;;9.83;70.25;97634.34;4405534;32;35269;-84
2022/04/01 13:14:33;;;;;;;;;;;;;;;10.09;69.23;97633.78;4415868;32;34173;-84
2022/04/01 13:17:18;;;;;;;;;;;;;;;9.76;70.84;97644.09;4428471;32;32762;-85
2022/04/01 13:20:06;;;;;;;;;;;;;;;9.87;70.33;97640.09;4415105;32;33978;-92
2022/04/01 13:22:54;;;;;;;;;;;;;;;9.76;70.72;97648.56;4430827;32;35017;-90
2022/04/01 13:25:41;;;;;;;;;;;;;;;9.62;70.22;97647.63;4405360;32;33635;-91
2022/04/01 13:28:31;;;;;;;;;;;;;;;9.70;70.67;97647.50;4430582;32;33004;-87
2022/04/01 13:31:20;;;;;;;;;;;;;;;9.67;70.51;97639.09;4429395;32;33880;-88
2022/04/01 13:34:09;;;;;;;;;;;;;;;9.40;70.91;97642.50;4406295;32;34295;-95
2022/04/01 13:37:12;;;;;;;;;;;;;;;9.81;70.28;97639.03;4429556;32;34743;-83
2022/04/01 13:39:42;;;;;;;;;;;;;;;10.06;69.64;97639.44;4416619;32;32857;-87
2022/04/01 13:42:29;;;;;;;;;;;;;;;9.82;69.90;97645.97;4420633;32;33496;-90
2022/04/01 13:45:39;;;;;;;;;;;;;;;10.13;69.00;97649.12;4431377;32;35698;-85
2022/04/01 13:48:26;;;;;;;;;;;;;;;10.35;68.08;97647.22;4418039;32;34122;-86
2022/04/01 13:51:15;;;;;;;;;;;;;;;10.43;67.70;97647.06;4406192;32;32377;-85
2022/04/01 13:53:54;;;;;;;;;;;;;;;10.22;69.08;97647.16;4417787;32;33616;-89
2022/04/01 13:56:26;;;;;;;;;;;;;;;10.00;68.63;97646.31;4416716;32;34714;-89
2022/04/01 13:59:14;;;;;;;;;;;;;;;10.38;68.55;97638.87;4418070;32;33434;-85
2022/04/01 14:02:05;;;;;;;;;;;;;;;10.26;67.67;97645.72;4429042;32;32405;-88
2022/04/01 14:05:13;;;;;;;;;;;;;;;9.97;68.51;97645.87;4429735;32;33797;-86
2022/04/01 14:07:42;;;;;;;;;;;;;;;10.63;67.06;97655.97;4427099;32;34054;-84
2022/04/01 14:10:15;;;;;;;;;;;;;;;10.53;67.89;97651.03;4427799;32;34345;-81
2022/04/01 14:12:45;;;;;;;;;;;;;;;10.71;66.69;97647.84;4402260;32;32734;-83
2022/04/01 14:15:13;;;;;;;;;;;;;;;10.77;65.99;97653.19;4401582;32;32886;-87
2022/04/01 14:18:00;;;;;;;;;;;;;;;10.82;66.00;97647.28;4430619;32;35200;-85
2022/04/01 14:20:32;;;;;;;;;;;;;;;10.76;65.69;97661.37;4404731;32;34161;-84
2022/04/01 14:23:01;;;;;;;;;;;;;;;10.72;65.69;97671.59;4416220;32;31579;-88
2022/04/01 14:25:49;;;;;;;;;;;;;;;10.34;66.45;97672.16;4420169;32;34998;-87
2022/04/01 14:28:35;;;;;;;;;;;;;;;10.19;66.57;97674.91;4420343;32;36252;-87
2022/04/01 14:31:06;;;;;;;;;;;;;;;10.29;66.68;97667.41;4430646;32;34588;-85
2022/04/01 14:33:35;;;;;;;;;;;;;;;10.65;67.02;97668.06;4418564;32;33315;-88
2022/04/01 14:36:23;;;;;;;;;;;;;;;11.01;65.99;97666.00;4406941;32;33893;-87
2022/04/01 14:39:10;;;;;;;;;;;;;;;10.65;65.02;97672.59;4401412;32;35192;-85
2022/04/01 14:41:41;;;;;;;;;;;;;;;10.68;64.88;97680.97;4429908;32;34421;-84
2022/04/01 14:44:13;;;;;;;;;;;;;;;10.59;64.58;97686.66;4406381;32;33257;-85